createdAt,value
2022-11-24T00:01:31.284Z,9.20
2022-11-24T00:04:04.718Z,9.30
2022-11-24T00:06:35.346Z,9.40
2022-11-24T00:09:04.754Z,9.40
2022-11-24T00:11:35.430Z,9.30
2022-11-24T00:14:03.925Z,9.20
2022-11-24T00:16:36.625Z,9.30
2022-11-24T00:19:08.981Z,9.20
2022-11-24T00:21:37.647Z,9.20
2022-11-24T00:24:04.997Z,9.30
2022-11-24T00:26:34.919Z,9.20
2022-11-24T00:29:04.324Z,9.30
2022-11-24T00:31:37.854Z,9.00
2022-11-24T00:34:14.406Z,9.10
2022-11-24T00:36:42.640Z,9.20
2022-11-24T00:39:15.114Z,9.30
2022-11-24T00:41:42.973Z,9.30
2022-11-24T00:44:10.195Z,9.30
2022-11-24T00:46:37.582Z,9.50
2022-11-24T00:49:04.997Z,9.40
2022-11-24T00:51:32.879Z,9.30
2022-11-24T00:54:01.355Z,9.30
2022-11-24T00:56:30.113Z,9.40
2022-11-24T00:58:56.975Z,9.40
2022-11-24T01:01:28.155Z,9.40
2022-11-24T01:03:55.778Z,9.40
2022-11-24T01:06:26.268Z,9.40
2022-11-24T01:08:53.958Z,9.40
2022-11-24T01:11:22.397Z,9.30
2022-11-24T01:13:57.870Z,9.30
2022-11-24T01:16:26.049Z,9.30
2022-11-24T01:18:53.680Z,9.40
2022-11-24T01:21:21.394Z,9.30
2022-11-24T01:23:49.257Z,9.40
2022-11-24T01:26:19.870Z,9.50
2022-11-24T01:28:47.948Z,9.50
2022-11-24T01:31:16.724Z,9.50
2022-11-24T01:33:43.653Z,9.30
2022-11-24T01:36:10.592Z,9.30
2022-11-24T01:38:37.403Z,9.20
2022-11-24T01:41:25.699Z,9.20
2022-11-24T01:43:55.409Z,9.20
2022-11-24T01:46:30.814Z,9.20
2022-11-24T01:49:18.202Z,9.10
2022-11-24T01:52:08.921Z,9.10
2022-11-24T01:54:59.390Z,9.10
2022-11-24T01:57:42.975Z,9.10
2022-11-24T02:00:14.357Z,9.10
2022-11-24T02:02:44.269Z,9.00
2022-11-24T02:05:31.111Z,9.20
2022-11-24T02:08:00.916Z,9.20
2022-11-24T02:10:28.802Z,9.20
2022-11-24T02:12:58.704Z,9.20
2022-11-24T02:15:25.921Z,9.10
2022-11-24T02:17:52.827Z,9.20
2022-11-24T02:20:19.992Z,9.10
2022-11-24T02:23:18.677Z,9.20
2022-11-24T02:26:35.014Z,9.20
2022-11-24T02:29:02.242Z,9.20
2022-11-24T02:31:29.585Z,9.10
2022-11-24T02:33:57.169Z,9.10
2022-11-24T02:36:24.622Z,9.20
2022-11-24T02:38:51.402Z,9.10
2022-11-24T02:41:21.544Z,9.20
2022-11-24T02:43:59.858Z,9.30
2022-11-24T02:46:26.617Z,9.10
2022-11-24T02:48:53.698Z,9.10
2022-11-24T02:51:20.648Z,9.10
2022-11-24T02:53:47.471Z,9.10
2022-11-24T02:56:14.395Z,9.10
2022-11-24T02:58:41.336Z,9.10
2022-11-24T03:01:08.745Z,9.10
2022-11-24T03:03:35.693Z,9.20
2022-11-24T03:06:02.500Z,9.10
2022-11-24T03:08:29.309Z,9.20
2022-11-24T03:10:56.098Z,9.10
2022-11-24T03:13:22.925Z,9.10
2022-11-24T03:15:49.816Z,9.10
2022-11-24T03:18:16.672Z,9.10
2022-11-24T03:20:44.177Z,9.00
2022-11-24T03:23:11.587Z,9.10
2022-11-24T03:25:38.449Z,9.00
2022-11-24T03:28:05.318Z,9.00
2022-11-24T03:30:32.229Z,9.10
2022-11-24T03:32:59.076Z,9.10
2022-11-24T03:35:25.995Z,9.10
2022-11-24T03:37:52.835Z,9.20
2022-11-24T03:40:19.703Z,9.20
2022-11-24T03:42:46.579Z,9.10
2022-11-24T03:48:00.245Z,9.30
2022-11-24T03:50:27.070Z,9.20
2022-11-24T03:52:53.924Z,9.10
2022-11-24T03:55:20.722Z,9.10
2022-11-24T03:57:47.909Z,9.30
2022-11-24T04:00:15.669Z,9.30
2022-11-24T04:02:42.538Z,9.30
2022-11-24T04:05:09.677Z,9.20
2022-11-24T04:07:36.684Z,9.30
2022-11-24T04:10:04.488Z,9.30
2022-11-24T04:12:46.305Z,9.30
2022-11-24T04:15:18.378Z,9.30
2022-11-24T04:17:47.190Z,9.30
2022-11-24T04:20:14.245Z,9.30
2022-11-24T04:22:41.519Z,9.30
2022-11-24T04:25:09.785Z,9.20
2022-11-24T04:27:38.021Z,9.20
2022-11-24T04:30:07.370Z,9.20
2022-11-24T04:32:34.282Z,9.30
2022-11-24T04:35:01.073Z,9.20
2022-11-24T04:37:28.105Z,9.20
2022-11-24T04:39:55.289Z,9.20
2022-11-24T04:42:22.248Z,9.30
2022-11-24T04:44:49.096Z,9.20
2022-11-24T04:47:21.143Z,9.30
2022-11-24T04:49:49.206Z,9.20
2022-11-24T04:52:17.814Z,9.30
2022-11-24T04:54:44.632Z,9.30
2022-11-24T04:57:27.990Z,9.30
2022-11-24T04:59:55.321Z,9.30
2022-11-24T05:02:23.334Z,9.40
2022-11-24T05:04:50.570Z,9.20
2022-11-24T05:07:19.614Z,9.20
2022-11-24T05:10:06.084Z,9.30
2022-11-24T05:12:33.195Z,9.30
2022-11-24T05:15:03.186Z,9.30
2022-11-24T05:17:38.063Z,9.40
2022-11-24T05:20:07.044Z,9.40
2022-11-24T05:22:33.832Z,9.30
2022-11-24T05:25:00.665Z,9.40
2022-11-24T05:27:27.841Z,9.40
2022-11-24T05:29:54.657Z,9.40
2022-11-24T05:32:21.649Z,9.30
2022-11-24T05:34:48.836Z,9.30
2022-11-24T05:37:15.757Z,9.40
2022-11-24T05:39:42.579Z,9.40
2022-11-24T05:42:28.883Z,9.40
2022-11-24T05:44:55.731Z,9.40
2022-11-24T05:47:22.657Z,9.40
2022-11-24T05:49:49.796Z,9.40
2022-11-24T05:52:17.160Z,9.50
2022-11-24T05:54:44.158Z,9.40
2022-11-24T05:57:11.070Z,9.50
2022-11-24T05:59:38.327Z,9.30
2022-11-24T06:02:07.484Z,9.40
2022-11-24T06:04:34.692Z,9.30
2022-11-24T06:07:01.781Z,9.40
2022-11-24T06:09:28.930Z,9.30
2022-11-24T06:11:56.054Z,9.40
2022-11-24T06:14:23.017Z,9.70
2022-11-24T06:16:50.050Z,9.70
2022-11-24T06:19:16.919Z,9.90
2022-11-24T06:21:43.825Z,9.80
2022-11-24T06:24:10.802Z,9.80
2022-11-24T06:26:37.657Z,9.70
2022-11-24T06:29:04.596Z,9.80
2022-11-24T06:31:31.461Z,9.60
2022-11-24T06:33:59.155Z,9.60
2022-11-24T06:36:26.262Z,9.50
2022-11-24T06:38:54.131Z,9.50
2022-11-24T06:41:20.979Z,9.50
2022-11-24T06:43:48.025Z,9.60
2022-11-24T06:46:14.975Z,9.40
2022-11-24T06:48:42.043Z,9.60
2022-11-24T06:51:15.217Z,9.60
2022-11-24T06:53:42.007Z,9.60
2022-11-24T06:56:16.605Z,9.60
2022-11-24T06:58:50.720Z,9.50
2022-11-24T07:01:27.986Z,9.60
2022-11-24T07:03:58.153Z,9.60
2022-11-24T07:06:37.261Z,9.70
2022-11-24T07:09:05.738Z,9.50
2022-11-24T07:11:33.701Z,9.50
2022-11-24T07:14:01.983Z,9.60
2022-11-24T07:16:29.935Z,9.60
2022-11-24T07:18:57.548Z,9.60
2022-11-24T07:21:26.745Z,9.70
2022-11-24T07:23:56.784Z,9.90
2022-11-24T07:26:26.993Z,9.90
2022-11-24T07:28:54.244Z,9.80
2022-11-24T07:31:26.136Z,9.80
2022-11-24T07:33:55.174Z,9.80
2022-11-24T07:36:23.313Z,9.80
2022-11-24T07:38:50.804Z,9.80
2022-11-24T07:41:19.664Z,9.80
2022-11-24T07:43:51.562Z,9.60
2022-11-24T07:46:19.833Z,9.60
2022-11-24T07:48:48.148Z,9.80
2022-11-24T07:51:19.156Z,9.90
2022-11-24T07:53:46.424Z,9.70
2022-11-24T07:56:16.597Z,9.80
2022-11-24T07:58:45.938Z,9.80
2022-11-24T08:01:18.234Z,9.70
2022-11-24T08:03:46.207Z,9.80
2022-11-24T08:06:38.721Z,10.00
2022-11-24T08:09:02.266Z,10.00
2022-11-24T08:11:31.295Z,10.10
2022-11-24T08:13:58.201Z,10.00
2022-11-24T08:16:25.040Z,10.00
2022-11-24T08:18:56.102Z,9.60
2022-11-24T08:21:23.742Z,9.60
2022-11-24T08:23:57.053Z,9.80
2022-11-24T08:26:25.661Z,10.00
2022-11-24T08:28:58.989Z,10.00
2022-11-24T08:31:33.395Z,10.00
2022-11-24T08:34:02.607Z,10.00
2022-11-24T08:36:30.326Z,10.00
2022-11-24T08:38:59.673Z,10.10
2022-11-24T08:41:27.669Z,9.90
2022-11-24T08:43:55.522Z,10.00
2022-11-24T08:46:23.458Z,10.00
2022-11-24T08:48:53.881Z,10.20
2022-11-24T08:51:25.880Z,10.20
2022-11-24T08:53:58.227Z,10.10
2022-11-24T08:56:27.765Z,10.20
2022-11-24T08:58:56.269Z,10.40
2022-11-24T09:01:24.476Z,10.40
2022-11-24T09:03:52.210Z,10.30
2022-11-24T09:06:23.483Z,10.30
2022-11-24T09:08:51.686Z,10.40
2022-11-24T09:11:19.441Z,10.40
2022-11-24T09:13:46.337Z,10.40
2022-11-24T09:16:26.752Z,10.40
2022-11-24T09:19:04.381Z,10.50
2022-11-24T09:21:34.337Z,10.40
2022-11-24T09:24:01.454Z,10.60
2022-11-24T09:26:31.700Z,10.60
2022-11-24T09:29:00.880Z,10.60
2022-11-24T09:31:31.734Z,10.60
2022-11-24T09:33:59.425Z,10.70
2022-11-24T09:36:26.402Z,10.70
2022-11-24T09:38:53.457Z,10.90
2022-11-24T09:41:44.970Z,10.80
2022-11-24T09:44:46.010Z,10.90
2022-11-24T09:47:51.315Z,11.10
2022-11-24T09:50:30.653Z,11.00
2022-11-24T09:53:29.298Z,11.20
2022-11-24T09:56:03.183Z,10.90
2022-11-24T09:58:45.726Z,11.10
2022-11-24T10:01:18.428Z,11.20
2022-11-24T10:03:53.970Z,11.10
2022-11-24T10:06:31.488Z,11.30
2022-11-24T10:09:41.814Z,11.30
2022-11-24T10:12:36.269Z,11.20
2022-11-24T10:15:59.633Z,11.30
2022-11-24T10:19:14.507Z,11.50
2022-11-24T10:22:08.634Z,11.50
2022-11-24T10:24:50.463Z,11.80
2022-11-24T10:27:22.498Z,11.80
2022-11-24T10:29:52.855Z,11.90
2022-11-24T10:32:35.368Z,11.90
2022-11-24T10:35:30.270Z,11.90
2022-11-24T10:38:35.703Z,11.80
2022-11-24T10:41:12.263Z,11.80
2022-11-24T10:43:43.547Z,11.80
2022-11-24T10:46:39.513Z,11.70
2022-11-24T10:49:06.743Z,11.90
2022-11-24T10:51:45.226Z,11.90
2022-11-24T10:54:24.149Z,12.00
2022-11-24T10:56:53.278Z,12.10
2022-11-24T10:59:34.457Z,12.00
2022-11-24T11:02:01.900Z,11.80
2022-11-24T11:04:33.374Z,11.60
2022-11-24T11:07:24.031Z,11.60
2022-11-24T11:10:17.795Z,11.70
2022-11-24T11:12:45.487Z,11.40
2022-11-24T11:15:31.141Z,11.40
2022-11-24T11:18:00.952Z,11.40
2022-11-24T11:20:34.501Z,11.30
2022-11-24T11:23:21.266Z,11.30
2022-11-24T11:25:48.469Z,11.20
2022-11-24T11:28:29.069Z,11.10
2022-11-24T11:31:19.953Z,11.40
2022-11-24T11:34:16.002Z,11.60
2022-11-24T11:36:53.517Z,11.50
2022-11-24T11:39:36.390Z,11.30
2022-11-24T11:42:53.752Z,11.50
2022-11-24T11:45:33.581Z,11.60
2022-11-24T11:48:03.423Z,11.70
2022-11-24T11:51:14.767Z,11.70
2022-11-24T11:54:02.728Z,11.70
2022-11-24T11:56:45.073Z,11.40
2022-11-24T11:59:34.427Z,11.60
2022-11-24T12:02:38.195Z,11.40
2022-11-24T12:05:43.412Z,11.50
2022-11-24T12:09:18.070Z,11.60
2022-11-24T12:11:57.587Z,11.70
2022-11-24T12:14:39.604Z,11.80
2022-11-24T12:17:32.303Z,11.80
2022-11-24T12:20:23.220Z,11.90
2022-11-24T12:23:29.371Z,11.90
2022-11-24T12:26:45.973Z,11.80
2022-11-24T12:29:48.562Z,12.20
2022-11-24T12:32:48.865Z,12.10
2022-11-24T12:35:27.950Z,12.40
2022-11-24T12:38:27.913Z,12.30
2022-11-24T12:41:42.689Z,12.40
2022-11-24T12:44:29.917Z,12.70
2022-11-24T12:47:18.077Z,12.80
2022-11-24T12:50:24.090Z,12.90
2022-11-24T12:53:00.898Z,12.60
2022-11-24T12:55:32.144Z,12.30
2022-11-24T12:58:18.272Z,12.40
2022-11-24T13:01:09.315Z,12.80
2022-11-24T13:03:51.701Z,13.10
2022-11-24T13:06:27.754Z,13.20
2022-11-24T13:08:55.278Z,13.20
2022-11-24T13:11:22.019Z,13.10
2022-11-24T13:14:12.007Z,13.30
2022-11-24T13:17:27.942Z,13.10
2022-11-24T13:19:39.657Z,12.90
2022-11-24T13:22:25.480Z,13.10
2022-11-24T13:25:17.655Z,13.80
2022-11-24T13:27:48.597Z,14.00
2022-11-24T13:30:33.828Z,14.00
2022-11-24T13:33:16.635Z,14.00
2022-11-24T13:36:02.524Z,14.50
2022-11-24T13:38:52.697Z,14.30
2022-11-24T13:41:32.029Z,14.50
2022-11-24T13:44:16.924Z,14.40
2022-11-24T13:47:05.761Z,14.30
2022-11-24T13:49:41.935Z,14.40
2022-11-24T13:52:39.884Z,14.10
2022-11-24T13:55:12.762Z,13.70
2022-11-24T13:57:50.937Z,13.60
2022-11-24T14:00:58.358Z,13.70
2022-11-24T14:04:21.680Z,13.40
2022-11-24T14:07:02.432Z,13.80
2022-11-24T14:09:52.480Z,13.20
2022-11-24T14:12:26.690Z,13.10
2022-11-24T14:15:12.688Z,13.00
2022-11-24T14:17:39.788Z,12.90
2022-11-24T14:20:24.423Z,12.70
2022-11-24T14:22:51.667Z,12.80
2022-11-24T14:25:32.268Z,12.80
2022-11-24T14:28:00.459Z,12.70
2022-11-24T14:30:27.633Z,12.70
2022-11-24T14:33:01.303Z,12.80
2022-11-24T14:35:35.051Z,12.70
2022-11-24T14:38:04.587Z,12.80
2022-11-24T14:40:52.953Z,12.60
2022-11-24T14:43:22.942Z,12.80
2022-11-24T14:45:54.967Z,12.70
2022-11-24T14:48:30.272Z,12.70
2022-11-24T14:51:20.669Z,12.50
2022-11-24T14:53:52.289Z,12.70
2022-11-24T14:56:31.865Z,12.80
2022-11-24T14:58:59.299Z,12.60
2022-11-24T15:01:32.675Z,12.60
2022-11-24T15:04:54.363Z,12.60
2022-11-24T15:07:26.695Z,12.30
2022-11-24T15:09:58.860Z,12.10
2022-11-24T15:12:34.836Z,12.10
2022-11-24T15:15:14.163Z,12.10
2022-11-24T15:17:53.627Z,11.90
2022-11-24T15:20:45.845Z,11.60
2022-11-24T15:23:36.227Z,11.60
2022-11-24T15:26:03.874Z,11.80
2022-11-24T15:28:34.380Z,11.50
2022-11-24T15:31:04.694Z,11.60
2022-11-24T15:33:35.128Z,11.30
2022-11-24T15:36:03.003Z,11.00
2022-11-24T15:38:29.891Z,11.00
2022-11-24T15:41:00.654Z,11.00
2022-11-24T15:43:40.866Z,11.00
2022-11-24T15:46:09.246Z,10.90
2022-11-24T15:48:36.513Z,11.00
2022-11-24T15:51:11.300Z,10.90
2022-11-24T15:53:47.283Z,10.80
2022-11-24T15:56:36.688Z,10.90
2022-11-24T15:59:04.618Z,10.70
2022-11-24T16:01:34.143Z,10.70
2022-11-24T16:05:07.106Z,10.70
2022-11-24T16:07:33.934Z,10.60
2022-11-24T16:10:00.906Z,10.80
2022-11-24T16:12:27.698Z,10.80
2022-11-24T16:14:54.532Z,10.60
2022-11-24T16:17:21.378Z,10.50
2022-11-24T16:19:50.565Z,10.40
2022-11-24T16:22:26.818Z,10.40
2022-11-24T16:24:53.629Z,10.40
2022-11-24T16:35:47.119Z,10.20
2022-11-24T16:38:22.790Z,10.10
2022-11-24T16:40:54.319Z,10.20
2022-11-24T16:43:21.311Z,10.20
2022-11-24T16:46:22.461Z,9.90
2022-11-24T16:48:53.215Z,10.00
2022-11-24T16:51:22.968Z,9.70
2022-11-24T16:53:58.933Z,9.60
2022-11-24T16:56:28.190Z,9.70
2022-11-24T16:58:55.286Z,9.70
2022-11-24T17:01:23.266Z,9.70
2022-11-24T17:03:50.197Z,9.50
2022-11-24T17:06:17.416Z,9.60
2022-11-24T17:08:46.539Z,9.60
2022-11-24T17:11:16.825Z,9.20
2022-11-24T17:13:45.770Z,9.20
2022-11-24T17:16:16.236Z,9.40
2022-11-24T17:18:43.917Z,9.50
2022-11-24T17:21:23.368Z,9.50
2022-11-24T17:24:00.271Z,9.40
2022-11-24T17:26:28.653Z,9.30
2022-11-24T17:28:56.265Z,9.20
2022-11-24T17:31:35.716Z,9.20
2022-11-24T17:34:05.823Z,8.90
2022-11-24T17:36:35.046Z,8.70
2022-11-24T17:39:04.909Z,9.10
2022-11-24T17:41:33.081Z,9.00
2022-11-24T17:44:00.855Z,8.80
2022-11-24T17:46:30.989Z,9.00
2022-11-24T17:48:59.222Z,8.90
2022-11-24T17:51:27.254Z,8.90
2022-11-24T17:53:57.331Z,8.80
2022-11-24T17:56:27.274Z,8.60
2022-11-24T17:58:57.497Z,8.50
2022-11-24T18:01:26.064Z,8.70
2022-11-24T18:03:54.798Z,8.70
2022-11-24T18:06:25.529Z,8.70
2022-11-24T18:08:54.624Z,8.70
2022-11-24T18:11:31.659Z,8.80
2022-11-24T18:14:03.378Z,8.80
2022-11-24T18:16:34.827Z,8.60
2022-11-24T18:19:09.290Z,8.60
2022-11-24T18:21:45.125Z,8.60
2022-11-24T18:24:14.022Z,8.70
2022-11-24T18:26:44.235Z,8.50
2022-11-24T18:29:11.584Z,8.60
2022-11-24T18:31:39.624Z,8.60
2022-11-24T18:34:07.019Z,8.30
2022-11-24T18:36:35.979Z,8.40
2022-11-24T18:39:08.805Z,8.50
2022-11-24T18:41:36.905Z,8.50
2022-11-24T18:44:08.323Z,8.50
2022-11-24T18:46:37.689Z,8.40
2022-11-24T18:49:07.552Z,8.60
2022-11-24T18:51:35.783Z,8.50
2022-11-24T18:54:05.591Z,8.60
2022-11-24T18:56:33.245Z,8.70
2022-11-24T18:59:01.043Z,8.70
2022-11-24T19:01:30.166Z,8.60
2022-11-24T19:04:00.769Z,8.50
2022-11-24T19:06:39.837Z,8.40
2022-11-24T19:09:16.382Z,8.30
2022-11-24T19:11:46.302Z,8.40
2022-11-24T19:14:18.323Z,8.30
2022-11-24T19:16:48.380Z,8.30
2022-11-24T19:19:17.385Z,8.20
2022-11-24T19:21:45.904Z,8.20
2022-11-24T19:24:13.845Z,8.20
2022-11-24T19:26:42.000Z,8.10
2022-11-24T19:29:10.269Z,8.00
2022-11-24T19:31:39.961Z,8.10
2022-11-24T19:34:08.419Z,8.10
2022-11-24T19:36:36.800Z,8.10
2022-11-24T19:39:05.504Z,8.20
2022-11-24T19:41:34.061Z,7.90
2022-11-24T19:44:02.427Z,8.10
2022-11-24T19:46:30.551Z,8.00
2022-11-24T19:49:01.755Z,8.00
2022-11-24T19:51:34.789Z,8.00
2022-11-24T19:54:03.803Z,8.00
2022-11-24T19:56:35.104Z,8.00
2022-11-24T19:59:04.717Z,8.10
2022-11-24T20:01:39.613Z,8.20
2022-11-24T20:04:11.617Z,8.30
2022-11-24T20:06:43.195Z,8.20
2022-11-24T20:09:14.457Z,8.20
2022-11-24T20:11:43.207Z,8.10
2022-11-24T20:14:16.539Z,8.10
2022-11-24T20:16:47.337Z,8.20
2022-11-24T20:19:16.821Z,8.20
2022-11-24T20:21:47.718Z,8.20
2022-11-24T20:24:19.105Z,8.20
2022-11-24T20:26:56.436Z,8.10
2022-11-24T20:29:23.316Z,8.10
2022-11-24T20:31:54.085Z,8.20
2022-11-24T20:34:22.620Z,8.20
2022-11-24T20:36:50.048Z,8.10
2022-11-24T20:39:25.403Z,8.00
2022-11-24T20:41:53.986Z,8.10
2022-11-24T20:44:22.464Z,8.10
2022-11-24T20:46:50.687Z,8.20
2022-11-24T20:49:20.644Z,8.10
2022-11-24T20:51:47.756Z,8.10
2022-11-24T20:54:17.781Z,8.20
2022-11-24T20:56:46.632Z,8.20
2022-11-24T20:59:21.676Z,8.20
2022-11-24T21:01:50.971Z,7.70
2022-11-24T21:04:24.588Z,7.70
2022-11-24T21:06:51.723Z,7.60
2022-11-24T21:09:19.388Z,7.60
2022-11-24T21:11:46.232Z,7.80
2022-11-24T21:14:13.693Z,7.50
2022-11-24T21:16:42.721Z,7.50
2022-11-24T21:19:13.898Z,7.60
2022-11-24T21:21:42.600Z,7.50
2022-11-24T21:24:16.739Z,7.50
2022-11-24T21:26:47.446Z,7.60
2022-11-24T21:29:17.750Z,7.60
2022-11-24T21:31:44.789Z,7.70
2022-11-24T21:34:18.350Z,7.50
2022-11-24T21:36:45.610Z,7.50
2022-11-24T21:39:15.034Z,7.50
2022-11-24T21:41:42.673Z,7.20
2022-11-24T21:44:12.733Z,7.30
2022-11-24T21:46:45.027Z,7.10
2022-11-24T21:49:14.812Z,6.90
2022-11-24T21:51:41.616Z,7.10
2022-11-24T21:54:08.841Z,7.00
2022-11-24T21:56:35.668Z,7.10
2022-11-24T21:59:02.512Z,7.10
2022-11-24T22:01:29.408Z,7.10
2022-11-24T22:03:56.961Z,7.20
2022-11-24T22:06:24.317Z,7.00
2022-11-24T22:08:51.233Z,7.20
2022-11-24T22:11:24.124Z,7.10
2022-11-24T22:13:52.100Z,7.20
2022-11-24T22:16:22.382Z,7.20
2022-11-24T22:18:50.115Z,7.10
2022-11-24T22:21:30.078Z,7.20
2022-11-24T22:23:57.411Z,7.30
2022-11-24T22:26:24.836Z,7.30
2022-11-24T22:28:53.726Z,6.90
2022-11-24T22:31:27.187Z,6.70
2022-11-24T22:33:56.260Z,6.70
2022-11-24T22:36:26.125Z,7.10
2022-11-24T22:38:59.312Z,7.00
2022-11-24T22:41:26.190Z,7.10
2022-11-24T22:43:53.898Z,7.30
2022-11-24T22:46:24.772Z,7.10
2022-11-24T22:48:53.372Z,7.30
2022-11-24T22:51:24.655Z,7.30
2022-11-24T22:53:58.580Z,7.10
2022-11-24T22:56:27.779Z,7.00
2022-11-24T22:58:54.943Z,7.00
2022-11-24T23:01:24.980Z,7.00
2022-11-24T23:03:55.803Z,7.20
2022-11-24T23:06:28.971Z,7.20
2022-11-24T23:08:58.061Z,7.30
2022-11-24T23:11:33.851Z,7.20
2022-11-24T23:15:35.033Z,6.80
2022-11-24T23:18:01.880Z,6.90
2022-11-24T23:20:28.708Z,7.00
2022-11-24T23:22:56.906Z,6.80
2022-11-24T23:25:23.738Z,6.90
2022-11-24T23:27:50.586Z,6.80
2022-11-24T23:30:17.470Z,6.80
2022-11-24T23:32:44.243Z,6.60
2022-11-24T23:35:13.787Z,6.90
2022-11-24T23:38:06.016Z,6.80
2022-11-24T23:40:28.697Z,7.00
2022-11-24T23:42:55.503Z,7.00
2022-11-24T23:45:22.300Z,6.90
2022-11-24T23:47:49.117Z,6.80
2022-11-24T23:50:15.956Z,6.60
2022-11-24T23:52:42.709Z,6.70
2022-11-24T23:55:09.563Z,6.70
2022-11-24T23:57:36.447Z,6.80
